Time;durP1;ratioP1;P1;durP2;ratioP2;P2;SDS_P1;SDS_P2;PMS_P1;PMS_P2;Temp;Humidity;BMP_temperature;BMP_pressure;BME280_temperature;BME280_humidity;BME280_pressure;Samples;Min_cycle;Max_cycle;Signal;HPM_P1;HPM_P2
2021/04/18 00:01:03;;;;;;;7.53;5.20;;;;;;;;;;5019064;28;20236;-79
2021/04/18 00:03:31;;;;;;;11.43;5.10;;;;;;;;;;4999180;28;20229;-80
2021/04/18 00:05:59;;;;;;;10.30;5.40;;;;;;;;;;5010165;28;20233;-76
2021/04/18 00:08:27;;;;;;;11.60;5.00;;;;;;;;;;5041770;28;20228;-77
2021/04/18 00:10:54;;;;;;;7.43;5.37;;;;;;;;;;5014803;28;20247;-76
2021/04/18 00:13:22;;;;;;;7.77;4.90;;;;;;;;;;5004124;28;20225;-78
2021/04/18 00:15:49;;;;;;;7.97;5.10;;;;;;;;;;5042090;28;20744;-76
2021/04/18 00:18:17;;;;;;;7.27;5.10;;;;;;;;;;5016047;28;20247;-77
2021/04/18 00:20:46;;;;;;;7.33;5.40;;;;;;;;;;5046220;28;20903;-77
2021/04/18 00:23:13;;;;;;;10.43;5.00;;;;;;;;;;5000816;28;20239;-76
2021/04/18 00:25:41;;;;;;;8.43;5.53;;;;;;;;;;5028392;28;20239;-77
2021/04/18 00:28:10;;;;;;;7.23;5.50;;;;;;;;;;5029245;28;20251;-81
2021/04/18 00:30:38;;;;;;;7.87;5.80;;;;;;;;;;5048910;28;20246;-79
2021/04/18 00:33:06;;;;;;;8.50;6.00;;;;;;;;;;5027187;28;20240;-77
2021/04/18 00:35:33;;;;;;;7.57;5.67;;;;;;;;;;5023034;28;20236;-79
2021/04/18 00:38:01;;;;;;;7.70;5.20;;;;;;;;;;5029434;28;20231;-77
2021/04/18 00:40:30;;;;;;;7.20;5.93;;;;;;;;;;5022470;28;20260;-77
2021/04/18 00:42:58;;;;;;;7.57;5.27;;;;;;;;;;5030459;28;20240;-79
2021/04/18 00:45:25;;;;;;;7.70;5.23;;;;;;;;;;5020652;28;20704;-77
2021/04/18 00:47:54;;;;;;;6.60;5.50;;;;;;;;;;5028674;28;20224;-77
2021/04/18 00:50:23;;;;;;;9.07;5.43;;;;;;;;;;5001934;28;20236;-77
2021/04/18 00:52:52;;;;;;;7.23;5.73;;;;;;;;;;5002810;28;20705;-76
2021/04/18 00:55:22;;;;;;;6.00;5.10;;;;;;;;;;5015417;28;20235;-76
2021/04/18 00:57:50;;;;;;;7.77;5.87;;;;;;;;;;5024418;28;20630;-80
2021/04/18 01:00:19;;;;;;;6.73;5.67;;;;;;;;;;5036632;28;20262;-77
2021/04/18 01:02:48;;;;;;;7.53;5.70;;;;;;;;;;5013799;28;20634;-77
2021/04/18 01:05:17;;;;;;;7.27;5.43;;;;;;;;;;5007409;28;20246;-77
2021/04/18 01:07:45;;;;;;;8.53;5.70;;;;;;;;;;5008105;28;20661;-77
2021/04/18 01:10:15;;;;;;;10.53;5.40;;;;;;;;;;5005723;28;20233;-76
2021/04/18 01:12:44;;;;;;;10.70;6.07;;;;;;;;;;5028069;28;20220;-77
2021/04/18 01:15:13;;;;;;;8.13;6.07;;;;;;;;;;5003857;28;20270;-76
2021/04/18 01:17:41;;;;;;;11.20;6.33;;;;;;;;;;4999579;28;20703;-76
2021/04/18 01:20:14;;;;;;;9.97;5.70;;;;;;;;;;5012584;28;20243;-77
2021/04/18 01:22:43;;;;;;;7.67;5.97;;;;;;;;;;5026357;28;20228;-76
2021/04/18 01:25:26;;;;;;;8.73;5.83;;;;;;;;;;5023362;28;20718;-77
2021/04/18 01:28:00;;;;;;;7.10;5.43;;;;;;;;;;5029039;28;20220;-77
2021/04/18 01:30:29;;;;;;;6.50;5.70;;;;;;;;;;5008958;28;20236;-77
2021/04/18 01:33:00;;;;;;;8.63;5.67;;;;;;;;;;5006187;28;20220;-77
2021/04/18 01:35:28;;;;;;;9.33;6.27;;;;;;;;;;5005635;28;20259;-76
2021/04/18 01:37:57;;;;;;;7.90;6.00;;;;;;;;;;5031716;28;20603;-76
2021/04/18 01:40:26;;;;;;;7.40;5.83;;;;;;;;;;5026574;28;20224;-76
2021/04/18 01:42:54;;;;;;;7.13;6.13;;;;;;;;;;5010578;28;20733;-77
2021/04/18 01:45:23;;;;;;;9.27;6.60;;;;;;;;;;5025746;28;20239;-77
2021/04/18 01:47:56;;;;;;;12.00;6.47;;;;;;;;;;5031219;28;20220;-80
2021/04/18 01:50:24;;;;;;;9.57;6.50;;;;;;;;;;5057119;28;20234;-80
2021/04/18 01:52:52;;;;;;;7.20;6.50;;;;;;;;;;5045934;28;20212;-79
2021/04/18 01:55:21;;;;;;;7.63;6.20;;;;;;;;;;5047749;28;20224;-81
2021/04/18 01:57:54;;;;;;;8.67;6.20;;;;;;;;;;5036609;28;20236;-76
2021/04/18 02:00:35;;;;;;;7.93;6.00;;;;;;;;;;5040896;28;20595;-77
2021/04/18 02:03:04;;;;;;;7.33;6.20;;;;;;;;;;5071372;28;20235;-78
2021/04/18 02:05:41;;;;;;;9.93;7.30;;;;;;;;;;5040338;28;20231;-77
2021/04/18 02:08:17;;;;;;;12.47;6.70;;;;;;;;;;5031139;28;20236;-77
2021/04/18 02:10:46;;;;;;;10.50;6.80;;;;;;;;;;5023801;28;20241;-77
2021/04/18 02:13:16;;;;;;;10.50;7.30;;;;;;;;;;5021250;28;20229;-78
2021/04/18 02:15:52;;;;;;;9.50;7.53;;;;;;;;;;5020746;28;20228;-79
2021/04/18 02:18:21;;;;;;;8.60;6.97;;;;;;;;;;5029481;28;20232;-76
2021/04/18 02:20:50;;;;;;;10.07;7.03;;;;;;;;;;5023958;28;20239;-77
2021/04/18 02:23:17;;;;;;;10.93;7.87;;;;;;;;;;5012388;28;20232;-77
2021/04/18 02:25:45;;;;;;;9.10;7.43;;;;;;;;;;5030969;28;20228;-78
2021/04/18 02:28:14;;;;;;;8.17;7.13;;;;;;;;;;5014364;28;20236;-79
2021/04/18 02:30:42;;;;;;;11.93;7.63;;;;;;;;;;5030630;28;20239;-78
2021/04/18 02:33:10;;;;;;;10.23;7.40;;;;;;;;;;5028271;28;20232;-81
2021/04/18 02:35:38;;;;;;;11.97;7.37;;;;;;;;;;5016972;28;20255;-79
2021/04/18 02:38:06;;;;;;;8.80;7.03;;;;;;;;;;5038118;28;20221;-77
2021/04/18 02:40:34;;;;;;;12.30;7.37;;;;;;;;;;5020708;28;20224;-78
2021/04/18 02:43:02;;;;;;;9.70;6.60;;;;;;;;;;5016507;28;20243;-77
2021/04/18 02:45:33;;;;;;;8.90;7.97;;;;;;;;;;5018314;28;20229;-80
2021/04/18 02:48:01;;;;;;;8.63;7.30;;;;;;;;;;5000923;28;20223;-77
2021/04/18 02:50:29;;;;;;;9.43;7.20;;;;;;;;;;5006597;28;20600;-80
2021/04/18 02:53:00;;;;;;;9.67;7.10;;;;;;;;;;5015438;28;20224;-77
2021/04/18 02:55:28;;;;;;;10.10;7.73;;;;;;;;;;5022503;28;20596;-77
2021/04/18 02:58:06;;;;;;;9.40;7.43;;;;;;;;;;5005156;28;20232;-76
2021/04/18 03:00:35;;;;;;;9.37;7.13;;;;;;;;;;5018897;28;20236;-77
2021/04/18 03:03:03;;;;;;;10.10;7.33;;;;;;;;;;4999784;28;20228;-79
2021/04/18 03:05:32;;;;;;;11.87;7.33;;;;;;;;;;5024235;28;20220;-79
2021/04/18 03:08:07;;;;;;;11.23;7.60;;;;;;;;;;5017625;28;20697;-77
2021/04/18 03:10:35;;;;;;;10.33;7.97;;;;;;;;;;5017055;28;20240;-77
2021/04/18 03:13:04;;;;;;;10.17;7.03;;;;;;;;;;5020646;28;20601;-78
2021/04/18 03:15:35;;;;;;;9.53;7.67;;;;;;;;;;5031935;28;20220;-78
2021/04/18 03:18:08;;;;;;;8.33;7.40;;;;;;;;;;5012734;28;20240;-76
2021/04/18 03:20:37;;;;;;;12.13;7.73;;;;;;;;;;5035713;28;20238;-78
2021/04/18 03:23:07;;;;;;;8.73;6.63;;;;;;;;;;5039996;28;20228;-78
2021/04/18 03:25:35;;;;;;;10.07;8.43;;;;;;;;;;5028224;28;20608;-77
2021/04/18 03:28:08;;;;;;;9.67;7.60;;;;;;;;;;5009357;28;20344;-77
2021/04/18 03:30:41;;;;;;;9.40;7.67;;;;;;;;;;5024032;28;20228;-76
2021/04/18 03:33:12;;;;;;;11.10;8.03;;;;;;;;;;5013919;28;20229;-77
2021/04/18 03:35:41;;;;;;;8.20;7.17;;;;;;;;;;5004651;28;20231;-77
2021/04/18 03:38:11;;;;;;;11.33;7.73;;;;;;;;;;5039908;28;20252;-78
2021/04/18 03:40:42;;;;;;;9.50;6.90;;;;;;;;;;5022955;28;20225;-79
2021/04/18 03:43:11;;;;;;;10.03;7.47;;;;;;;;;;5051992;28;20227;-77
2021/04/18 03:45:39;;;;;;;9.63;6.73;;;;;;;;;;5030810;28;20223;-77
2021/04/18 03:48:09;;;;;;;9.50;7.23;;;;;;;;;;5041458;28;20372;-77
2021/04/18 03:50:37;;;;;;;10.33;7.77;;;;;;;;;;5035545;28;20595;-77
2021/04/18 03:53:17;;;;;;;8.73;7.63;;;;;;;;;;5013104;28;20744;-77
2021/04/18 03:55:50;;;;;;;10.43;7.73;;;;;;;;;;5048994;28;20612;-79
2021/04/18 03:58:25;;;;;;;10.20;7.03;;;;;;;;;;5015512;28;20236;-77
2021/04/18 04:00:59;;;;;;;11.27;7.90;;;;;;;;;;5027487;28;20232;-77
2021/04/18 04:03:31;;;;;;;9.73;8.30;;;;;;;;;;5013945;28;20224;-80
2021/04/18 04:05:59;;;;;;;10.87;8.13;;;;;;;;;;5064404;28;20232;-79
2021/04/18 04:08:31;;;;;;;9.80;7.60;;;;;;;;;;5047684;28;20219;-78
2021/04/18 04:10:59;;;;;;;8.67;7.73;;;;;;;;;;5039464;28;20232;-78
2021/04/18 04:13:28;;;;;;;9.77;7.90;;;;;;;;;;5041967;28;20249;-77
2021/04/18 04:15:59;;;;;;;11.50;8.10;;;;;;;;;;5013260;28;20857;-76
2021/04/18 04:18:29;;;;;;;11.20;8.10;;;;;;;;;;5009716;28;20736;-78
2021/04/18 04:21:16;;;;;;;11.77;8.60;;;;;;;;;;5023310;28;20251;-77
2021/04/18 04:24:03;;;;;;;12.13;7.93;;;;;;;;;;5055433;28;20221;-76
2021/04/18 04:26:30;;;;;;;11.50;8.60;;;;;;;;;;5011265;28;20224;-81
2021/04/18 04:28:58;;;;;;;10.70;8.60;;;;;;;;;;5021014;28;20236;-79
2021/04/18 04:31:26;;;;;;;12.63;8.77;;;;;;;;;;5028715;28;20224;-77
2021/04/18 04:33:54;;;;;;;10.83;8.63;;;;;;;;;;5033791;28;20227;-77
2021/04/18 04:36:23;;;;;;;11.97;8.30;;;;;;;;;;5030892;28;20236;-76
2021/04/18 04:38:51;;;;;;;11.47;8.57;;;;;;;;;;5001999;28;20749;-76
2021/04/18 04:41:19;;;;;;;11.20;9.30;;;;;;;;;;5003713;28;20228;-77
2021/04/18 04:43:47;;;;;;;11.03;8.97;;;;;;;;;;5032806;28;20240;-77
2021/04/18 04:46:14;;;;;;;10.43;8.57;;;;;;;;;;5011501;28;20613;-77
2021/04/18 04:48:42;;;;;;;11.40;9.10;;;;;;;;;;5019373;28;20244;-77
2021/04/18 04:51:09;;;;;;;10.87;8.80;;;;;;;;;;5021314;28;20247;-78
2021/04/18 04:53:38;;;;;;;12.13;8.77;;;;;;;;;;5017224;28;20224;-77
2021/04/18 04:56:06;;;;;;;14.27;9.47;;;;;;;;;;5043910;28;20235;-77
2021/04/18 04:58:34;;;;;;;10.70;8.20;;;;;;;;;;5018934;28;20228;-77
2021/04/18 05:01:01;;;;;;;10.53;8.53;;;;;;;;;;4998334;28;20252;-79
2021/04/18 05:03:29;;;;;;;15.23;9.50;;;;;;;;;;5038851;28;20236;-77
2021/04/18 05:05:57;;;;;;;11.30;9.07;;;;;;;;;;5004965;28;20244;-77
2021/04/18 05:08:25;;;;;;;12.60;8.53;;;;;;;;;;5020022;28;20250;-77
2021/04/18 05:10:53;;;;;;;11.27;8.90;;;;;;;;;;5028461;28;20228;-77
2021/04/18 05:13:20;;;;;;;10.73;8.83;;;;;;;;;;5030339;28;20232;-78
2021/04/18 05:15:48;;;;;;;11.00;8.30;;;;;;;;;;5027807;28;20228;-80
2021/04/18 05:18:15;;;;;;;13.07;9.17;;;;;;;;;;5014612;28;20698;-77
2021/04/18 05:20:43;;;;;;;10.17;8.33;;;;;;;;;;5012258;28;20773;-78
2021/04/18 05:23:11;;;;;;;11.90;8.53;;;;;;;;;;5030757;28;20236;-77
2021/04/18 05:25:38;;;;;;;10.70;8.57;;;;;;;;;;5015209;28;20239;-80
2021/04/18 05:28:07;;;;;;;10.50;8.13;;;;;;;;;;5026896;28;20216;-77
2021/04/18 05:30:34;;;;;;;11.20;8.87;;;;;;;;;;5022461;28;20232;-81
2021/04/18 05:33:07;;;;;;;11.03;8.70;;;;;;;;;;5015542;28;20228;-77
2021/04/18 05:35:35;;;;;;;11.37;8.17;;;;;;;;;;5003393;28;20228;-77
2021/04/18 05:38:03;;;;;;;11.00;8.93;;;;;;;;;;4997908;28;20216;-77
2021/04/18 05:40:30;;;;;;;12.57;8.90;;;;;;;;;;5020317;28;20230;-78
2021/04/18 05:42:58;;;;;;;11.20;8.33;;;;;;;;;;5017581;28;20374;-79
2021/04/18 05:45:27;;;;;;;9.97;7.77;;;;;;;;;;5043378;28;20235;-77
2021/04/18 05:47:54;;;;;;;12.07;8.87;;;;;;;;;;5001163;28;20216;-77
2021/04/18 05:50:22;;;;;;;11.10;8.07;;;;;;;;;;5025559;28;20232;-77
2021/04/18 05:52:49;;;;;;;10.80;8.73;;;;;;;;;;4999169;28;20220;-77
2021/04/18 05:55:17;;;;;;;10.40;8.60;;;;;;;;;;4999685;28;20227;-77
2021/04/18 05:57:45;;;;;;;10.80;9.17;;;;;;;;;;5022311;28;20231;-77
2021/04/18 06:00:14;;;;;;;12.10;9.43;;;;;;;;;;5063754;28;20243;-78
2021/04/18 06:02:43;;;;;;;11.17;8.73;;;;;;;;;;5032112;28;20709;-78
2021/04/18 06:05:12;;;;;;;14.23;9.93;;;;;;;;;;5035471;28;20750;-77
2021/04/18 06:07:40;;;;;;;11.63;8.63;;;;;;;;;;5066383;28;20219;-76
2021/04/18 06:10:09;;;;;;;11.20;9.40;;;;;;;;;;5036002;28;20236;-78
2021/04/18 06:12:37;;;;;;;13.77;8.80;;;;;;;;;;5050766;28;20230;-76
2021/04/18 06:15:05;;;;;;;10.47;9.10;;;;;;;;;;5043802;28;20235;-76
2021/04/18 06:17:33;;;;;;;13.50;9.77;;;;;;;;;;5013781;28;20233;-80
2021/04/18 06:20:10;;;;;;;13.70;9.37;;;;;;;;;;5010155;28;20228;-76
2021/04/18 06:22:38;;;;;;;13.13;9.13;;;;;;;;;;5039588;28;20242;-76
2021/04/18 06:25:07;;;;;;;12.47;9.63;;;;;;;;;;5014169;28;20488;-76
2021/04/18 06:27:34;;;;;;;11.27;9.20;;;;;;;;;;5023967;28;20222;-78
2021/04/18 06:30:03;;;;;;;11.43;9.83;;;;;;;;;;5019891;28;20602;-76
2021/04/18 06:32:30;;;;;;;11.40;10.07;;;;;;;;;;5022335;28;20238;-76
2021/04/18 06:35:02;;;;;;;14.90;9.63;;;;;;;;;;5013733;28;20231;-78
2021/04/18 06:37:31;;;;;;;11.53;9.73;;;;;;;;;;5009430;28;20246;-77
2021/04/18 06:39:58;;;;;;;11.90;10.53;;;;;;;;;;4994462;28;20613;-76
2021/04/18 06:42:28;;;;;;;11.20;9.93;;;;;;;;;;5017403;28;20241;-77
2021/04/18 06:44:57;;;;;;;11.50;10.03;;;;;;;;;;5004536;28;20605;-77
2021/04/18 06:47:25;;;;;;;11.10;9.27;;;;;;;;;;5015973;28;20541;-77
2021/04/18 06:49:53;;;;;;;11.87;10.47;;;;;;;;;;5012832;28;20230;-79
2021/04/18 06:52:20;;;;;;;12.20;10.67;;;;;;;;;;5012978;28;20237;-79
2021/04/18 06:54:55;;;;;;;13.50;10.70;;;;;;;;;;5037502;28;20231;-77
2021/04/18 06:57:23;;;;;;;10.93;9.47;;;;;;;;;;5034448;28;20617;-77
2021/04/18 06:59:51;;;;;;;12.37;10.13;;;;;;;;;;5044676;28;20237;-77
2021/04/18 07:02:27;;;;;;;12.47;10.50;;;;;;;;;;5034963;28;20721;-79
2021/04/18 07:04:59;;;;;;;13.23;10.30;;;;;;;;;;5016641;28;20232;-77
2021/04/18 07:07:28;;;;;;;12.07;10.37;;;;;;;;;;5041889;28;20710;-77
2021/04/18 07:09:57;;;;;;;11.43;9.80;;;;;;;;;;5029184;28;20234;-77
2021/04/18 07:12:26;;;;;;;12.47;10.17;;;;;;;;;;5021102;28;20231;-77
2021/04/18 07:14:53;;;;;;;12.37;10.57;;;;;;;;;;5025719;28;20231;-77
2021/04/18 07:17:21;;;;;;;13.87;11.07;;;;;;;;;;4997793;28;20241;-77
2021/04/18 07:19:50;;;;;;;12.87;10.63;;;;;;;;;;5000006;28;20231;-77
2021/04/18 07:22:18;;;;;;;13.57;10.63;;;;;;;;;;5014230;28;20225;-77
2021/04/18 07:24:52;;;;;;;14.43;11.13;;;;;;;;;;5009947;28;20231;-77
2021/04/18 07:27:21;;;;;;;13.40;11.20;;;;;;;;;;5009509;28;20602;-80
2021/04/18 07:29:54;;;;;;;12.83;10.90;;;;;;;;;;5029970;28;20606;-78
2021/04/18 07:32:29;;;;;;;12.20;10.80;;;;;;;;;;5033670;28;20242;-77
2021/04/18 07:35:05;;;;;;;13.07;10.80;;;;;;;;;;5031672;28;20610;-77
2021/04/18 07:37:34;;;;;;;11.23;10.10;;;;;;;;;;5025706;28;20222;-77
2021/04/18 07:40:05;;;;;;;12.50;11.20;;;;;;;;;;5037439;28;20600;-77
2021/04/18 07:42:35;;;;;;;14.10;11.37;;;;;;;;;;5020384;28;20235;-77
2021/04/18 07:45:07;;;;;;;15.40;11.77;;;;;;;;;;5017659;28;20228;-76
2021/04/18 07:47:36;;;;;;;13.40;11.13;;;;;;;;;;5021010;28;20579;-80
2021/04/18 07:50:05;;;;;;;12.50;10.73;;;;;;;;;;5019075;28;20574;-78
2021/04/18 07:52:33;;;;;;;14.47;11.77;;;;;;;;;;4996978;28;20239;-76
2021/04/18 07:55:01;;;;;;;12.50;10.90;;;;;;;;;;5018406;28;20245;-77
2021/04/18 07:57:29;;;;;;;13.30;10.57;;;;;;;;;;5016123;28;20719;-78
2021/04/18 07:59:59;;;;;;;15.40;11.87;;;;;;;;;;4995207;28;20619;-77
2021/04/18 08:02:28;;;;;;;12.60;10.53;;;;;;;;;;5022392;28;20243;-78
2021/04/18 08:04:56;;;;;;;14.00;10.67;;;;;;;;;;5016590;28;20240;-77
2021/04/18 08:07:24;;;;;;;13.97;11.70;;;;;;;;;;5024804;28;20224;-77
2021/04/18 08:10:21;;;;;;;12.53;11.23;;;;;;;;;;5037019;28;20216;-83
2021/04/18 08:13:00;;;;;;;12.50;11.20;;;;;;;;;;5047721;28;20212;-79
2021/04/18 08:15:29;;;;;;;14.10;11.77;;;;;;;;;;5037864;28;20210;-80
2021/04/18 08:18:07;;;;;;;12.90;11.60;;;;;;;;;;5030468;28;20225;-79
2021/04/18 08:20:38;;;;;;;12.67;11.27;;;;;;;;;;5019534;28;20732;-79
2021/04/18 08:23:08;;;;;;;15.80;12.30;;;;;;;;;;5003464;28;20220;-77
2021/04/18 08:25:37;;;;;;;14.20;12.57;;;;;;;;;;5015568;28;20235;-78
2021/04/18 08:28:08;;;;;;;13.70;11.70;;;;;;;;;;5026681;28;20243;-77
2021/04/18 08:31:07;;;;;;;13.03;11.33;;;;;;;;;;5001696;28;20695;-77
2021/04/18 08:33:50;;;;;;;13.17;11.83;;;;;;;;;;5023273;28;20235;-76
2021/04/18 08:36:19;;;;;;;13.43;12.03;;;;;;;;;;5007482;28;20232;-77
2021/04/18 08:38:48;;;;;;;16.50;12.63;;;;;;;;;;5005917;28;20251;-77
2021/04/18 08:41:17;;;;;;;15.93;12.27;;;;;;;;;;5027051;28;20235;-77
2021/04/18 08:43:47;;;;;;;13.97;12.47;;;;;;;;;;5004082;28;20233;-77
2021/04/18 08:46:21;;;;;;;13.03;11.70;;;;;;;;;;4992823;28;22105;-80
2021/04/18 08:48:49;;;;;;;13.97;12.47;;;;;;;;;;5006543;28;20230;-77
2021/04/18 08:51:36;;;;;;;14.13;12.73;;;;;;;;;;5002668;28;20237;-77
2021/04/18 08:54:05;;;;;;;13.13;11.63;;;;;;;;;;5028149;28;20578;-76
2021/04/18 08:56:50;;;;;;;13.50;12.10;;;;;;;;;;5019298;28;20232;-77
2021/04/18 08:59:19;;;;;;;14.10;12.70;;;;;;;;;;5025276;28;20238;-78
2021/04/18 09:01:57;;;;;;;21.53;12.83;;;;;;;;;;5029113;28;20286;-77
2021/04/18 09:04:26;;;;;;;13.60;11.93;;;;;;;;;;5036639;28;20232;-79
2021/04/18 09:06:55;;;;;;;12.73;11.53;;;;;;;;;;5034607;28;20237;-78
2021/04/18 09:09:22;;;;;;;13.30;11.90;;;;;;;;;;5001668;28;20235;-78
2021/04/18 09:11:50;;;;;;;11.97;10.77;;;;;;;;;;5019829;28;20225;-77
2021/04/18 09:14:25;;;;;;;12.30;11.00;;;;;;;;;;5006830;28;20234;-77
2021/04/18 09:17:10;;;;;;;11.63;10.43;;;;;;;;;;5025772;28;20235;-78
2021/04/18 09:19:45;;;;;;;13.50;10.33;;;;;;;;;;5026802;28;20725;-78
2021/04/18 09:22:15;;;;;;;11.50;10.30;;;;;;;;;;5026484;28;20239;-80
2021/04/18 09:24:44;;;;;;;11.50;10.07;;;;;;;;;;5024540;28;20236;-80
2021/04/18 09:27:15;;;;;;;12.17;10.87;;;;;;;;;;5029401;28;20227;-80
2021/04/18 09:29:45;;;;;;;16.23;11.90;;;;;;;;;;5008923;28;20228;-77
2021/04/18 09:32:15;;;;;;;16.03;11.17;;;;;;;;;;5025348;28;20236;-77
2021/04/18 09:34:44;;;;;;;10.80;9.70;;;;;;;;;;5029207;28;20235;-80
2021/04/18 09:37:23;;;;;;;11.10;10.00;;;;;;;;;;5012229;28;20224;-78
2021/04/18 09:39:55;;;;;;;12.73;10.47;;;;;;;;;;5025691;28;20232;-78
2021/04/18 09:42:24;;;;;;;11.80;9.63;;;;;;;;;;5021726;28;20613;-77
2021/04/18 09:44:54;;;;;;;13.80;10.73;;;;;;;;;;5017872;28;20221;-77
2021/04/18 09:47:34;;;;;;;11.17;10.07;;;;;;;;;;5004861;28;20231;-77
2021/04/18 09:50:21;;;;;;;12.00;9.80;;;;;;;;;;5021485;28;20231;-76
2021/04/18 09:52:50;;;;;;;12.33;10.57;;;;;;;;;;5021553;28;20702;-78
2021/04/18 09:55:21;;;;;;;11.07;9.83;;;;;;;;;;5039524;28;20298;-83
2021/04/18 09:57:54;;;;;;;11.83;10.03;;;;;;;;;;5055403;28;20216;-82
2021/04/18 10:00:35;;;;;;;10.53;9.53;;;;;;;;;;5061114;28;20228;-81
2021/04/18 10:03:07;;;;;;;11.73;9.80;;;;;;;;;;5041234;28;20228;-79
2021/04/18 10:05:37;;;;;;;11.60;10.40;;;;;;;;;;5047220;28;20236;-79
2021/04/18 10:08:21;;;;;;;11.90;10.00;;;;;;;;;;5043150;28;20648;-77
2021/04/18 10:10:51;;;;;;;11.13;10.03;;;;;;;;;;5062086;28;20223;-79
2021/04/18 10:13:42;;;;;;;12.50;9.87;;;;;;;;;;5041576;28;20235;-79
2021/04/18 10:16:22;;;;;;;11.57;10.17;;;;;;;;;;5005696;28;20223;-83
2021/04/18 10:19:09;;;;;;;10.67;9.23;;;;;;;;;;5022236;28;20232;-79
2021/04/18 10:21:38;;;;;;;11.43;10.27;;;;;;;;;;5016276;28;20224;-79
2021/04/18 10:24:30;;;;;;;11.20;10.07;;;;;;;;;;5033861;28;20224;-78
2021/04/18 10:26:58;;;;;;;11.93;10.20;;;;;;;;;;5003348;28;20220;-78
2021/04/18 10:29:41;;;;;;;10.83;9.73;;;;;;;;;;5014168;28;20231;-78
2021/04/18 10:32:13;;;;;;;10.90;9.80;;;;;;;;;;5018228;28;20243;-77
2021/04/18 10:34:41;;;;;;;11.10;10.00;;;;;;;;;;5021682;28;20216;-79
2021/04/18 10:37:09;;;;;;;12.50;11.00;;;;;;;;;;5021274;28;20252;-81
2021/04/18 10:39:37;;;;;;;11.20;10.13;;;;;;;;;;5016135;28;20616;-78
2021/04/18 10:42:06;;;;;;;11.50;10.10;;;;;;;;;;5018182;28;20228;-81
2021/04/18 10:44:33;;;;;;;12.33;11.07;;;;;;;;;;5003708;28;20236;-79
2021/04/18 10:47:04;;;;;;;10.43;9.30;;;;;;;;;;5020672;28;20235;-78
2021/04/18 10:49:32;;;;;;;10.90;9.80;;;;;;;;;;5021502;28;20251;-80
2021/04/18 10:52:01;;;;;;;11.40;10.20;;;;;;;;;;5008168;28;20228;-81
2021/04/18 10:54:28;;;;;;;10.67;9.57;;;;;;;;;;5016259;28;20228;-81
2021/04/18 10:56:56;;;;;;;12.90;10.60;;;;;;;;;;5018224;28;20239;-79
2021/04/18 10:59:23;;;;;;;10.33;9.33;;;;;;;;;;5007534;28;20232;-78
2021/04/18 11:01:52;;;;;;;10.93;9.73;;;;;;;;;;5012411;28;20588;-79
2021/04/18 11:04:21;;;;;;;10.57;9.50;;;;;;;;;;5032303;28;20270;-78
2021/04/18 11:06:49;;;;;;;9.73;8.77;;;;;;;;;;5008230;28;20239;-79
2021/04/18 11:09:17;;;;;;;11.03;9.87;;;;;;;;;;5013310;28;20241;-79
2021/04/18 11:11:45;;;;;;;10.37;9.30;;;;;;;;;;4997552;28;20224;-81
2021/04/18 11:14:13;;;;;;;11.30;9.67;;;;;;;;;;5013870;28;20235;-79
2021/04/18 11:16:40;;;;;;;10.50;9.50;;;;;;;;;;5014985;28;20272;-78
2021/04/18 11:19:08;;;;;;;10.97;9.50;;;;;;;;;;5013784;28;20243;-81
2021/04/18 11:21:37;;;;;;;11.80;10.40;;;;;;;;;;5009283;28;20220;-79
2021/04/18 11:24:05;;;;;;;11.63;10.10;;;;;;;;;;4992866;28;20709;-79
2021/04/18 11:26:33;;;;;;;11.13;9.93;;;;;;;;;;4993735;28;20246;-79
2021/04/18 11:29:02;;;;;;;12.07;9.13;;;;;;;;;;5019773;28;20616;-79
2021/04/18 11:31:30;;;;;;;9.80;8.90;;;;;;;;;;5006107;28;20232;-78
2021/04/18 11:33:57;;;;;;;12.47;11.10;;;;;;;;;;5008881;28;20220;-80
2021/04/18 11:36:25;;;;;;;14.97;13.03;;;;;;;;;;5007907;28;20733;-80
2021/04/18 11:39:08;;;;;;;11.30;10.10;;;;;;;;;;5010223;28;20246;-78
2021/04/18 11:41:37;;;;;;;11.63;9.90;;;;;;;;;;4994538;28;20232;-79
2021/04/18 11:44:15;;;;;;;12.03;10.80;;;;;;;;;;5021175;28;20227;-79
2021/04/18 11:46:45;;;;;;;11.37;10.27;;;;;;;;;;5020750;28;20239;-78
2021/04/18 11:49:19;;;;;;;12.67;9.17;;;;;;;;;;5024795;28;20223;-79
2021/04/18 11:51:47;;;;;;;12.37;11.10;;;;;;;;;;5023510;28;20228;-81
2021/04/18 11:54:15;;;;;;;11.03;9.90;;;;;;;;;;5027978;28;20243;-79
2021/04/18 11:56:43;;;;;;;11.30;10.17;;;;;;;;;;5026279;28;20227;-81
2021/04/18 11:59:11;;;;;;;10.70;9.63;;;;;;;;;;5041814;28;20236;-79
2021/04/18 12:01:38;;;;;;;10.47;9.47;;;;;;;;;;5025456;28;20228;-78
2021/04/18 12:04:07;;;;;;;11.67;10.53;;;;;;;;;;5006658;28;20228;-79
2021/04/18 12:06:35;;;;;;;11.00;9.90;;;;;;;;;;5025618;28;20751;-78
2021/04/18 12:09:02;;;;;;;11.10;10.00;;;;;;;;;;5022270;28;20230;-78
2021/04/18 12:11:30;;;;;;;10.93;9.90;;;;;;;;;;5003301;28;20216;-79
2021/04/18 12:14:02;;;;;;;11.30;9.77;;;;;;;;;;5022384;28;20339;-78
2021/04/18 12:16:29;;;;;;;10.20;9.17;;;;;;;;;;5024091;28;20231;-78
2021/04/18 12:18:57;;;;;;;11.83;10.60;;;;;;;;;;5017551;28;20232;-80
2021/04/18 12:21:26;;;;;;;10.73;9.63;;;;;;;;;;5007181;28;20220;-78
2021/04/18 12:23:55;;;;;;;10.80;9.23;;;;;;;;;;5018571;28;20224;-78
2021/04/18 12:26:23;;;;;;;10.97;9.97;;;;;;;;;;5028117;28;20224;-79
2021/04/18 12:28:51;;;;;;;11.33;10.10;;;;;;;;;;5021562;28;20616;-78
2021/04/18 12:31:20;;;;;;;13.17;10.47;;;;;;;;;;5003597;28;20231;-78
2021/04/18 12:33:47;;;;;;;10.93;9.83;;;;;;;;;;5012555;28;20240;-78
2021/04/18 12:36:15;;;;;;;11.33;10.10;;;;;;;;;;5019986;28;20217;-77
2021/04/18 12:38:42;;;;;;;9.77;8.77;;;;;;;;;;5026006;28;20223;-81
2021/04/18 12:41:11;;;;;;;18.33;16.43;;;;;;;;;;5000343;28;20224;-82
2021/04/18 12:43:39;;;;;;;13.53;11.30;;;;;;;;;;5028093;28;20600;-79
2021/04/18 12:46:08;;;;;;;12.43;11.10;;;;;;;;;;5017643;28;20243;-79
2021/04/18 12:48:37;;;;;;;11.70;10.50;;;;;;;;;;5015328;28;20236;-78
2021/04/18 12:51:06;;;;;;;12.07;10.67;;;;;;;;;;5016420;28;20224;-78
2021/04/18 12:53:33;;;;;;;11.33;10.10;;;;;;;;;;5019534;28;20228;-78
2021/04/18 12:56:02;;;;;;;11.13;10.03;;;;;;;;;;5027470;28;20236;-77
2021/04/18 12:58:29;;;;;;;12.03;10.83;;;;;;;;;;5002976;28;20618;-77
2021/04/18 13:00:57;;;;;;;10.67;9.67;;;;;;;;;;5020485;28;20243;-77
2021/04/18 13:03:25;;;;;;;10.60;9.70;;;;;;;;;;5022373;28;20247;-75
2021/04/18 13:05:53;;;;;;;11.03;10.03;;;;;;;;;;5012918;28;20223;-76
2021/04/18 13:08:21;;;;;;;11.20;10.30;;;;;;;;;;5019683;28;20454;-76
2021/04/18 13:10:49;;;;;;;11.63;10.43;;;;;;;;;;5017665;28;20242;-76
2021/04/18 13:13:17;;;;;;;11.27;10.27;;;;;;;;;;5031570;28;20736;-77
2021/04/18 13:15:46;;;;;;;10.73;9.82;;;;;;;;;;5034114;28;20231;-76
2021/04/18 13:18:13;;;;;;;10.88;9.85;;;;;;;;;;5037315;28;20728;-77
2021/04/18 13:20:41;;;;;;;10.30;9.30;;;;;;;;;;5046353;28;20232;-77
2021/04/18 13:23:09;;;;;;;9.82;9.02;;;;;;;;;;5024998;28;20223;-77
2021/04/18 13:25:37;;;;;;;9.50;8.70;;;;;;;;;;5034380;28;20219;-77
2021/04/18 13:28:06;;;;;;;8.35;7.65;;;;;;;;;;5050115;28;20238;-77
2021/04/18 13:30:33;;;;;;;8.50;7.80;;;;;;;;;;5044695;28;20227;-77
2021/04/18 13:33:01;;;;;;;9.48;8.68;;;;;;;;;;5023362;28;20764;-77
2021/04/18 13:35:29;;;;;;;9.20;8.40;;;;;;;;;;5041579;28;20223;-76
2021/04/18 13:37:57;;;;;;;8.60;7.80;;;;;;;;;;5034752;28;20227;-78
2021/04/18 13:40:26;;;;;;;8.60;7.90;;;;;;;;;;5049727;28;20246;-78
2021/04/18 13:42:54;;;;;;;9.50;7.60;;;;;;;;;;5054691;28;20220;-76
2021/04/18 13:45:22;;;;;;;8.20;7.50;;;;;;;;;;5018539;28;20220;-79
2021/04/18 13:47:49;;;;;;;8.10;7.30;;;;;;;;;;5040131;28;20638;-77
2021/04/18 13:50:17;;;;;;;8.20;7.43;;;;;;;;;;5015087;28;20239;-79
2021/04/18 13:52:45;;;;;;;8.53;7.73;;;;;;;;;;5030512;28;20232;-77
2021/04/18 13:55:14;;;;;;;7.90;7.10;;;;;;;;;;5006973;28;20224;-77
2021/04/18 13:57:43;;;;;;;8.90;8.00;;;;;;;;;;5007678;28;20653;-78
2021/04/18 14:00:13;;;;;;;8.37;7.57;;;;;;;;;;4985914;28;20260;-79
2021/04/18 14:02:41;;;;;;;8.77;7.70;;;;;;;;;;5011992;28;20589;-80
2021/04/18 14:05:11;;;;;;;8.77;7.97;;;;;;;;;;5004858;28;20233;-80
2021/04/18 14:07:41;;;;;;;8.47;7.67;;;;;;;;;;5004159;28;20231;-78
2021/04/18 14:10:10;;;;;;;8.57;7.77;;;;;;;;;;5048332;28;20227;-81
2021/04/18 14:12:38;;;;;;;8.33;7.53;;;;;;;;;;5022929;28;20922;-78
2021/04/18 14:15:08;;;;;;;7.60;6.90;;;;;;;;;;5015656;28;20231;-79
2021/04/18 14:17:36;;;;;;;8.50;7.70;;;;;;;;;;5013062;28;20223;-80
2021/04/18 14:20:06;;;;;;;7.80;7.00;;;;;;;;;;5039093;28;20581;-82
2021/04/18 14:22:33;;;;;;;8.07;7.37;;;;;;;;;;5024972;28;20228;-78
2021/04/18 14:25:01;;;;;;;7.53;6.93;;;;;;;;;;5007425;28;20223;-81
2021/04/18 14:27:29;;;;;;;8.40;7.60;;;;;;;;;;5003118;28;20236;-77
2021/04/18 14:29:56;;;;;;;7.50;6.80;;;;;;;;;;5007341;28;21356;-78
2021/04/18 14:32:25;;;;;;;8.70;7.90;;;;;;;;;;5023387;28;20232;-77
2021/04/18 14:34:53;;;;;;;8.57;7.88;;;;;;;;;;5006755;28;20231;-77
2021/04/18 14:37:23;;;;;;;8.05;7.35;;;;;;;;;;5014399;28;20232;-76
2021/04/18 14:39:52;;;;;;;8.30;7.60;;;;;;;;;;5019784;28;20224;-76
2021/04/18 14:42:19;;;;;;;7.78;7.13;;;;;;;;;;5024285;28;20228;-77
2021/04/18 14:44:47;;;;;;;7.75;7.10;;;;;;;;;;5045216;28;20209;-78
2021/04/18 14:47:15;;;;;;;6.78;6.28;;;;;;;;;;5056399;28;20741;-76